sensor_id;sensor_type;location;lat;lon;timestamp;P1;durP1;ratioP1;P2;durP2;ratioP2
44664;SDS011;30382;48.802;9.388;2023-05-15T04:44:09;10.40;;;6.73;;
44664;SDS011;30382;48.802;9.388;2023-05-15T04:47:08;7.10;;;6.43;;
44664;SDS011;30382;48.802;9.388;2023-05-15T07:14:46;7.53;;;6.73;;
44664;SDS011;30382;48.802;9.388;2023-05-15T07:24:29;7.50;;;6.80;;
44664;SDS011;30382;48.802;9.388;2023-05-15T07:34:01;6.00;;;5.50;;
44664;SDS011;30382;48.802;9.388;2023-05-15T07:37:03;7.30;;;6.33;;
44664;SDS011;30382;48.802;9.388;2023-05-15T07:39:51;6.03;;;5.43;;
44664;SDS011;30382;48.802;9.388;2023-05-15T07:45:44;6.63;;;6.03;;
44664;SDS011;30382;48.802;9.388;2023-05-15T08:14:57;6.57;;;5.90;;
44664;SDS011;30382;48.802;9.388;2023-05-15T08:28:47;5.80;;;5.27;;
44664;SDS011;30382;48.802;9.388;2023-05-15T08:40:35;6.00;;;5.33;;
44664;SDS011;30382;48.802;9.388;2023-05-15T08:43:37;5.20;;;4.57;;
44664;SDS011;30382;48.802;9.388;2023-05-15T09:08:14;18.93;;;6.53;;
44664;SDS011;30382;48.802;9.388;2023-05-15T09:14:47;5.60;;;5.10;;
44664;SDS011;30382;48.802;9.388;2023-05-15T09:23:46;5.27;;;4.83;;
44664;SDS011;30382;48.802;9.388;2023-05-15T09:55:31;4.33;;;3.90;;
44664;SDS011;30382;48.802;9.388;2023-05-15T11:38:36;3.70;;;3.50;;
44664;SDS011;30382;48.802;9.388;2023-05-15T11:41:22;4.17;;;3.83;;
44664;SDS011;30382;48.802;9.388;2023-05-15T11:44:19;3.43;;;3.17;;
44664;SDS011;30382;48.802;9.388;2023-05-15T11:47:03;3.00;;;2.80;;
44664;SDS011;30382;48.802;9.388;2023-05-15T11:49:52;3.47;;;3.23;;
44664;SDS011;30382;48.802;9.388;2023-05-15T11:52:36;3.43;;;3.13;;
44664;SDS011;30382;48.802;9.388;2023-05-15T11:55:21;3.37;;;3.13;;
44664;SDS011;30382;48.802;9.388;2023-05-15T11:58:13;3.10;;;2.90;;
44664;SDS011;30382;48.802;9.388;2023-05-15T12:00:57;3.87;;;3.53;;
44664;SDS011;30382;48.802;9.388;2023-05-15T12:03:41;3.10;;;2.90;;
44664;SDS011;30382;48.802;9.388;2023-05-15T12:06:26;4.27;;;2.60;;
44664;SDS011;30382;48.802;9.388;2023-05-15T12:12:40;3.97;;;2.53;;
44664;SDS011;30382;48.802;9.388;2023-05-15T12:16:13;2.30;;;2.20;;
44664;SDS011;30382;48.802;9.388;2023-05-15T12:18:58;2.57;;;2.37;;
44664;SDS011;30382;48.802;9.388;2023-05-15T12:21:45;2.50;;;2.30;;
44664;SDS011;30382;48.802;9.388;2023-05-15T12:24:30;3.10;;;2.47;;
44664;SDS011;30382;48.802;9.388;2023-05-15T12:27:14;2.80;;;2.60;;
44664;SDS011;30382;48.802;9.388;2023-05-15T12:29:59;3.83;;;2.73;;
44664;SDS011;30382;48.802;9.388;2023-05-15T12:32:44;2.57;;;2.37;;
44664;SDS011;30382;48.802;9.388;2023-05-15T12:35:28;4.87;;;3.00;;
44664;SDS011;30382;48.802;9.388;2023-05-15T12:38:14;2.70;;;2.50;;
44664;SDS011;30382;48.802;9.388;2023-05-15T12:40:59;2.30;;;2.20;;
44664;SDS011;30382;48.802;9.388;2023-05-15T12:43:44;3.80;;;3.50;;
44664;SDS011;30382;48.802;9.388;2023-05-15T12:46:28;6.60;;;3.00;;
44664;SDS011;30382;48.802;9.388;2023-05-15T12:49:13;5.63;;;3.30;;
44664;SDS011;30382;48.802;9.388;2023-05-15T12:52:08;4.50;;;4.20;;
44664;SDS011;30382;48.802;9.388;2023-05-15T12:54:52;6.50;;;6.00;;
44664;SDS011;30382;48.802;9.388;2023-05-15T12:57:36;9.50;;;8.80;;
44664;SDS011;30382;48.802;9.388;2023-05-15T13:00:21;7.47;;;6.77;;
44664;SDS011;30382;48.802;9.388;2023-05-15T13:03:07;3.77;;;3.47;;
44664;SDS011;30382;48.802;9.388;2023-05-15T13:05:51;5.10;;;3.77;;
44664;SDS011;30382;48.802;9.388;2023-05-15T13:08:39;4.60;;;4.23;;
44664;SDS011;30382;48.802;9.388;2023-05-15T13:11:28;3.97;;;3.57;;
44664;SDS011;30382;48.802;9.388;2023-05-15T13:14:15;3.33;;;3.13;;
44664;SDS011;30382;48.802;9.388;2023-05-15T13:17:00;4.00;;;3.70;;
44664;SDS011;30382;48.802;9.388;2023-05-15T13:19:48;3.33;;;3.00;;
44664;SDS011;30382;48.802;9.388;2023-05-15T13:22:32;23.03;;;5.57;;
44664;SDS011;30382;48.802;9.388;2023-05-15T13:25:17;4.03;;;3.67;;
44664;SDS011;30382;48.802;9.388;2023-05-15T13:28:03;3.67;;;3.40;;
44664;SDS011;30382;48.802;9.388;2023-05-15T13:30:49;4.23;;;3.93;;
44664;SDS011;30382;48.802;9.388;2023-05-15T13:33:34;4.80;;;3.87;;
44664;SDS011;30382;48.802;9.388;2023-05-15T13:36:19;4.00;;;3.80;;
44664;SDS011;30382;48.802;9.388;2023-05-15T13:39:03;3.63;;;3.43;;
44664;SDS011;30382;48.802;9.388;2023-05-15T13:41:48;4.03;;;3.43;;
44664;SDS011;30382;48.802;9.388;2023-05-15T13:44:32;3.87;;;3.67;;
44664;SDS011;30382;48.802;9.388;2023-05-15T13:47:18;3.73;;;3.40;;
44664;SDS011;30382;48.802;9.388;2023-05-15T13:50:03;3.97;;;3.70;;
44664;SDS011;30382;48.802;9.388;2023-05-15T13:52:47;3.40;;;3.13;;
44664;SDS011;30382;48.802;9.388;2023-05-15T13:55:31;4.13;;;3.78;;
44664;SDS011;30382;48.802;9.388;2023-05-15T13:58:16;3.70;;;3.40;;
44664;SDS011;30382;48.802;9.388;2023-05-15T14:01:03;3.60;;;3.30;;
44664;SDS011;30382;48.802;9.388;2023-05-15T14:03:48;3.73;;;3.53;;
44664;SDS011;30382;48.802;9.388;2023-05-15T14:06:32;3.63;;;3.40;;
44664;SDS011;30382;48.802;9.388;2023-05-15T14:09:17;3.40;;;3.20;;
44664;SDS011;30382;48.802;9.388;2023-05-15T14:12:01;3.50;;;3.20;;
44664;SDS011;30382;48.802;9.388;2023-05-15T14:14:45;4.37;;;3.30;;
44664;SDS011;30382;48.802;9.388;2023-05-15T14:17:30;2.90;;;2.80;;
44664;SDS011;30382;48.802;9.388;2023-05-15T14:20:14;3.27;;;2.87;;
44664;SDS011;30382;48.802;9.388;2023-05-15T14:22:58;3.50;;;3.30;;
44664;SDS011;30382;48.802;9.388;2023-05-15T14:25:43;3.70;;;3.40;;
44664;SDS011;30382;48.802;9.388;2023-05-15T14:28:27;3.77;;;3.47;;
44664;SDS011;30382;48.802;9.388;2023-05-15T14:31:11;3.47;;;3.17;;
44664;SDS011;30382;48.802;9.388;2023-05-15T14:33:56;4.03;;;3.50;;
44664;SDS011;30382;48.802;9.388;2023-05-15T14:36:40;3.87;;;3.57;;
44664;SDS011;30382;48.802;9.388;2023-05-15T14:39:24;3.80;;;3.50;;
44664;SDS011;30382;48.802;9.388;2023-05-15T14:42:09;3.47;;;3.13;;
44664;SDS011;30382;48.802;9.388;2023-05-15T14:44:53;3.30;;;3.10;;
44664;SDS011;30382;48.802;9.388;2023-05-15T14:47:37;4.53;;;3.43;;
44664;SDS011;30382;48.802;9.388;2023-05-15T14:50:22;3.60;;;3.30;;
44664;SDS011;30382;48.802;9.388;2023-05-15T14:53:06;3.87;;;3.63;;
44664;SDS011;30382;48.802;9.388;2023-05-15T14:55:52;4.20;;;3.90;;
44664;SDS011;30382;48.802;9.388;2023-05-15T14:58:37;3.43;;;2.80;;
44664;SDS011;30382;48.802;9.388;2023-05-15T15:01:21;3.33;;;3.03;;
44664;SDS011;30382;48.802;9.388;2023-05-15T15:04:06;3.63;;;3.30;;
44664;SDS011;30382;48.802;9.388;2023-05-15T15:06:50;3.70;;;3.50;;
44664;SDS011;30382;48.802;9.388;2023-05-15T15:09:35;3.93;;;3.63;;
44664;SDS011;30382;48.802;9.388;2023-05-15T15:12:19;3.60;;;3.33;;
44664;SDS011;30382;48.802;9.388;2023-05-15T15:15:03;4.30;;;3.80;;
44664;SDS011;30382;48.802;9.388;2023-05-15T15:17:48;3.60;;;3.17;;
44664;SDS011;30382;48.802;9.388;2023-05-15T15:20:32;3.70;;;3.40;;
44664;SDS011;30382;48.802;9.388;2023-05-15T15:23:17;4.80;;;4.40;;
44664;SDS011;30382;48.802;9.388;2023-05-15T15:26:02;6.70;;;4.70;;
44664;SDS011;30382;48.802;9.388;2023-05-15T15:28:46;5.00;;;4.57;;
44664;SDS011;30382;48.802;9.388;2023-05-15T15:31:31;5.47;;;4.97;;
44664;SDS011;30382;48.802;9.388;2023-05-15T15:34:16;4.67;;;4.37;;
44664;SDS011;30382;48.802;9.388;2023-05-15T15:37:00;6.17;;;4.90;;
44664;SDS011;30382;48.802;9.388;2023-05-15T15:39:44;10.10;;;6.67;;
44664;SDS011;30382;48.802;9.388;2023-05-15T15:42:29;6.70;;;5.30;;
44664;SDS011;30382;48.802;9.388;2023-05-15T15:45:13;5.10;;;4.80;;
44664;SDS011;30382;48.802;9.388;2023-05-15T15:47:57;5.37;;;4.87;;
44664;SDS011;30382;48.802;9.388;2023-05-15T15:50:41;11.17;;;5.63;;
44664;SDS011;30382;48.802;9.388;2023-05-15T15:53:26;4.90;;;4.50;;
44664;SDS011;30382;48.802;9.388;2023-05-15T15:56:10;4.60;;;4.30;;
44664;SDS011;30382;48.802;9.388;2023-05-15T15:58:54;4.93;;;4.53;;
44664;SDS011;30382;48.802;9.388;2023-05-15T16:01:38;4.57;;;4.17;;
44664;SDS011;30382;48.802;9.388;2023-05-15T16:04:23;5.43;;;4.93;;
44664;SDS011;30382;48.802;9.388;2023-05-15T16:07:07;5.07;;;4.67;;
44664;SDS011;30382;48.802;9.388;2023-05-15T16:09:51;5.70;;;4.80;;
44664;SDS011;30382;48.802;9.388;2023-05-15T16:12:36;6.00;;;4.50;;
44664;SDS011;30382;48.802;9.388;2023-05-15T16:15:20;5.07;;;4.60;;
44664;SDS011;30382;48.802;9.388;2023-05-15T16:18:05;5.30;;;4.90;;
44664;SDS011;30382;48.802;9.388;2023-05-15T16:20:49;6.33;;;5.10;;
44664;SDS011;30382;48.802;9.388;2023-05-15T16:23:34;5.37;;;4.87;;
44664;SDS011;30382;48.802;9.388;2023-05-15T16:26:19;5.40;;;4.90;;
44664;SDS011;30382;48.802;9.388;2023-05-15T16:29:04;5.23;;;4.83;;
44664;SDS011;30382;48.802;9.388;2023-05-15T16:31:48;5.97;;;5.47;;
44664;SDS011;30382;48.802;9.388;2023-05-15T16:34:33;5.67;;;4.97;;
44664;SDS011;30382;48.802;9.388;2023-05-15T16:37:17;6.70;;;6.07;;
44664;SDS011;30382;48.802;9.388;2023-05-15T16:40:01;5.67;;;5.27;;
44664;SDS011;30382;48.802;9.388;2023-05-15T16:42:47;6.93;;;6.23;;
44664;SDS011;30382;48.802;9.388;2023-05-15T16:45:31;7.07;;;6.47;;
44664;SDS011;30382;48.802;9.388;2023-05-15T16:48:15;6.43;;;5.60;;
44664;SDS011;30382;48.802;9.388;2023-05-15T16:51:00;6.17;;;5.77;;
44664;SDS011;30382;48.802;9.388;2023-05-15T16:53:44;5.50;;;5.10;;
44664;SDS011;30382;48.802;9.388;2023-05-15T16:56:28;6.17;;;5.57;;
44664;SDS011;30382;48.802;9.388;2023-05-15T16:59:12;7.50;;;6.47;;
44664;SDS011;30382;48.802;9.388;2023-05-15T17:01:57;7.40;;;6.70;;
44664;SDS011;30382;48.802;9.388;2023-05-15T17:04:42;6.03;;;5.53;;
44664;SDS011;30382;48.802;9.388;2023-05-15T17:07:26;6.37;;;5.77;;
44664;SDS011;30382;48.802;9.388;2023-05-15T17:10:11;6.33;;;5.73;;
44664;SDS011;30382;48.802;9.388;2023-05-15T17:12:55;7.37;;;6.67;;
44664;SDS011;30382;48.802;9.388;2023-05-15T17:15:39;6.87;;;6.17;;
44664;SDS011;30382;48.802;9.388;2023-05-15T17:18:24;7.40;;;6.70;;
44664;SDS011;30382;48.802;9.388;2023-05-15T17:21:08;7.50;;;6.77;;
44664;SDS011;30382;48.802;9.388;2023-05-15T17:23:54;10.17;;;7.50;;
44664;SDS011;30382;48.802;9.388;2023-05-15T17:26:39;7.30;;;6.60;;
44664;SDS011;30382;48.802;9.388;2023-05-15T17:29:23;6.40;;;5.90;;
44664;SDS011;30382;48.802;9.388;2023-05-15T17:32:08;7.20;;;6.60;;
44664;SDS011;30382;48.802;9.388;2023-05-15T17:34:52;6.50;;;5.90;;
44664;SDS011;30382;48.802;9.388;2023-05-15T17:37:37;8.33;;;6.53;;
44664;SDS011;30382;48.802;9.388;2023-05-15T17:40:21;7.13;;;6.53;;
44664;SDS011;30382;48.802;9.388;2023-05-15T17:43:05;6.47;;;5.87;;
44664;SDS011;30382;48.802;9.388;2023-05-15T17:45:52;7.03;;;5.77;;
44664;SDS011;30382;48.802;9.388;2023-05-15T17:48:36;6.37;;;5.77;;
44664;SDS011;30382;48.802;9.388;2023-05-15T17:51:21;6.27;;;5.63;;
44664;SDS011;30382;48.802;9.388;2023-05-15T17:54:06;6.30;;;5.73;;
44664;SDS011;30382;48.802;9.388;2023-05-15T17:56:51;7.30;;;6.60;;
44664;SDS011;30382;48.802;9.388;2023-05-15T17:59:35;8.47;;;7.70;;
44664;SDS011;30382;48.802;9.388;2023-05-15T18:02:20;8.03;;;5.80;;
44664;SDS011;30382;48.802;9.388;2023-05-15T18:05:04;7.57;;;6.43;;
44664;SDS011;30382;48.802;9.388;2023-05-15T18:07:49;9.90;;;7.23;;
44664;SDS011;30382;48.802;9.388;2023-05-15T18:10:33;6.80;;;6.20;;
44664;SDS011;30382;48.802;9.388;2023-05-15T18:13:18;7.47;;;6.40;;
44664;SDS011;30382;48.802;9.388;2023-05-15T18:16:09;7.40;;;6.80;;
44664;SDS011;30382;48.802;9.388;2023-05-15T18:18:54;6.73;;;6.07;;
44664;SDS011;30382;48.802;9.388;2023-05-15T18:21:38;7.40;;;6.70;;
44664;SDS011;30382;48.802;9.388;2023-05-15T18:24:23;9.93;;;7.60;;
44664;SDS011;30382;48.802;9.388;2023-05-15T18:27:07;10.00;;;7.40;;
44664;SDS011;30382;48.802;9.388;2023-05-15T18:29:52;6.77;;;5.83;;
44664;SDS011;30382;48.802;9.388;2023-05-15T18:32:37;6.13;;;5.53;;
44664;SDS011;30382;48.802;9.388;2023-05-15T18:35:21;6.90;;;6.20;;
44664;SDS011;30382;48.802;9.388;2023-05-15T18:38:05;6.13;;;5.60;;
44664;SDS011;30382;48.802;9.388;2023-05-15T18:40:50;5.73;;;5.00;;
44664;SDS011;30382;48.802;9.388;2023-05-15T18:43:34;6.07;;;5.47;;
44664;SDS011;30382;48.802;9.388;2023-05-15T18:46:19;5.80;;;5.30;;
44664;SDS011;30382;48.802;9.388;2023-05-15T18:49:04;7.47;;;5.30;;
44664;SDS011;30382;48.802;9.388;2023-05-15T18:51:48;5.70;;;5.30;;
44664;SDS011;30382;48.802;9.388;2023-05-15T18:54:32;5.67;;;5.20;;
44664;SDS011;30382;48.802;9.388;2023-05-15T18:57:17;5.90;;;5.20;;
44664;SDS011;30382;48.802;9.388;2023-05-15T19:00:02;6.60;;;6.00;;
44664;SDS011;30382;48.802;9.388;2023-05-15T19:02:47;5.30;;;4.87;;
44664;SDS011;30382;48.802;9.388;2023-05-15T19:05:31;6.03;;;5.53;;
44664;SDS011;30382;48.802;9.388;2023-05-15T19:08:16;7.13;;;5.50;;
44664;SDS011;30382;48.802;9.388;2023-05-15T19:11:01;7.53;;;6.83;;
44664;SDS011;30382;48.802;9.388;2023-05-15T19:13:45;7.00;;;6.30;;
44664;SDS011;30382;48.802;9.388;2023-05-15T19:16:30;6.93;;;6.33;;
44664;SDS011;30382;48.802;9.388;2023-05-15T19:19:16;7.50;;;6.80;;
44664;SDS011;30382;48.802;9.388;2023-05-15T19:22:00;7.43;;;6.43;;
44664;SDS011;30382;48.802;9.388;2023-05-15T19:24:45;6.53;;;5.93;;
44664;SDS011;30382;48.802;9.388;2023-05-15T19:27:30;6.53;;;6.03;;
44664;SDS011;30382;48.802;9.388;2023-05-15T19:30:15;8.63;;;6.47;;
44664;SDS011;30382;48.802;9.388;2023-05-15T19:33:00;8.30;;;5.77;;
44664;SDS011;30382;48.802;9.388;2023-05-15T19:35:44;7.17;;;6.47;;
44664;SDS011;30382;48.802;9.388;2023-05-15T19:38:29;6.00;;;5.50;;
44664;SDS011;30382;48.802;9.388;2023-05-15T19:41:13;7.10;;;6.50;;
44664;SDS011;30382;48.802;9.388;2023-05-15T19:43:58;10.70;;;6.00;;
44664;SDS011;30382;48.802;9.388;2023-05-15T19:46:42;6.67;;;6.07;;
44664;SDS011;30382;48.802;9.388;2023-05-15T19:49:28;8.00;;;7.20;;
44664;SDS011;30382;48.802;9.388;2023-05-15T19:52:12;9.17;;;8.10;;
44664;SDS011;30382;48.802;9.388;2023-05-15T19:54:56;6.70;;;6.10;;
44664;SDS011;30382;48.802;9.388;2023-05-15T19:57:42;6.90;;;6.33;;
44664;SDS011;30382;48.802;9.388;2023-05-15T20:00:28;6.20;;;5.60;;
44664;SDS011;30382;48.802;9.388;2023-05-15T20:03:12;7.43;;;5.67;;
44664;SDS011;30382;48.802;9.388;2023-05-15T20:06:00;6.90;;;5.87;;
44664;SDS011;30382;48.802;9.388;2023-05-15T20:08:45;7.60;;;6.37;;
44664;SDS011;30382;48.802;9.388;2023-05-15T20:11:30;6.50;;;5.90;;
44664;SDS011;30382;48.802;9.388;2023-05-15T20:14:14;6.50;;;5.90;;
44664;SDS011;30382;48.802;9.388;2023-05-15T20:16:58;6.00;;;5.40;;
44664;SDS011;30382;48.802;9.388;2023-05-15T20:19:43;5.97;;;5.57;;
44664;SDS011;30382;48.802;9.388;2023-05-15T20:22:27;7.53;;;6.80;;
44664;SDS011;30382;48.802;9.388;2023-05-15T20:25:11;7.57;;;6.87;;
44664;SDS011;30382;48.802;9.388;2023-05-15T20:27:56;7.20;;;6.50;;
44664;SDS011;30382;48.802;9.388;2023-05-15T20:30:41;9.30;;;6.60;;
44664;SDS011;30382;48.802;9.388;2023-05-15T20:33:26;7.93;;;7.03;;
44664;SDS011;30382;48.802;9.388;2023-05-15T20:36:10;7.77;;;7.07;;
44664;SDS011;30382;48.802;9.388;2023-05-15T20:38:55;7.27;;;6.67;;
44664;SDS011;30382;48.802;9.388;2023-05-15T20:41:39;7.80;;;6.87;;
44664;SDS011;30382;48.802;9.388;2023-05-15T20:44:24;7.60;;;6.90;;
44664;SDS011;30382;48.802;9.388;2023-05-15T20:47:08;6.57;;;6.00;;
44664;SDS011;30382;48.802;9.388;2023-05-15T20:49:53;9.00;;;7.27;;
44664;SDS011;30382;48.802;9.388;2023-05-15T20:52:37;6.83;;;6.23;;
44664;SDS011;30382;48.802;9.388;2023-05-15T20:55:22;6.97;;;6.20;;
44664;SDS011;30382;48.802;9.388;2023-05-15T20:58:06;7.83;;;7.10;;
44664;SDS011;30382;48.802;9.388;2023-05-15T21:00:51;7.50;;;6.27;;
44664;SDS011;30382;48.802;9.388;2023-05-15T21:03:35;6.30;;;5.80;;
44664;SDS011;30382;48.802;9.388;2023-05-15T21:06:20;6.20;;;5.63;;
44664;SDS011;30382;48.802;9.388;2023-05-15T21:09:04;6.30;;;5.70;;
44664;SDS011;30382;48.802;9.388;2023-05-15T21:11:48;6.27;;;5.63;;
44664;SDS011;30382;48.802;9.388;2023-05-15T21:14:33;6.17;;;5.53;;
44664;SDS011;30382;48.802;9.388;2023-05-15T21:17:17;6.90;;;6.30;;
44664;SDS011;30382;48.802;9.388;2023-05-15T21:20:02;6.10;;;5.60;;
44664;SDS011;30382;48.802;9.388;2023-05-15T21:22:47;6.93;;;6.30;;
44664;SDS011;30382;48.802;9.388;2023-05-15T21:25:31;7.50;;;6.90;;
44664;SDS011;30382;48.802;9.388;2023-05-15T21:28:16;6.97;;;6.27;;
44664;SDS011;30382;48.802;9.388;2023-05-15T21:31:09;7.23;;;6.63;;
44664;SDS011;30382;48.802;9.388;2023-05-15T21:33:54;7.50;;;6.57;;
44664;SDS011;30382;48.802;9.388;2023-05-15T21:36:39;6.20;;;5.60;;
44664;SDS011;30382;48.802;9.388;2023-05-15T21:39:23;6.40;;;5.77;;
44664;SDS011;30382;48.802;9.388;2023-05-15T21:42:07;7.03;;;5.87;;
44664;SDS011;30382;48.802;9.388;2023-05-15T21:44:52;6.83;;;6.23;;
44664;SDS011;30382;48.802;9.388;2023-05-15T21:47:36;8.73;;;7.87;;
44664;SDS011;30382;48.802;9.388;2023-05-15T21:50:21;7.83;;;7.13;;
44664;SDS011;30382;48.802;9.388;2023-05-15T21:53:05;7.00;;;6.30;;
44664;SDS011;30382;48.802;9.388;2023-05-15T21:55:59;7.70;;;7.00;;
44664;SDS011;30382;48.802;9.388;2023-05-15T21:58:44;7.77;;;7.17;;
44664;SDS011;30382;48.802;9.388;2023-05-15T22:01:28;10.10;;;7.57;;
44664;SDS011;30382;48.802;9.388;2023-05-15T22:04:13;6.97;;;6.27;;
44664;SDS011;30382;48.802;9.388;2023-05-15T22:06:57;7.47;;;6.77;;
44664;SDS011;30382;48.802;9.388;2023-05-15T22:09:42;6.90;;;6.27;;
44664;SDS011;30382;48.802;9.388;2023-05-15T22:12:27;7.07;;;6.43;;
44664;SDS011;30382;48.802;9.388;2023-05-15T22:15:12;7.40;;;6.47;;
44664;SDS011;30382;48.802;9.388;2023-05-15T22:17:58;7.07;;;6.37;;
44664;SDS011;30382;48.802;9.388;2023-05-15T22:20:43;8.97;;;6.80;;
44664;SDS011;30382;48.802;9.388;2023-05-15T22:23:28;8.30;;;7.00;;
44664;SDS011;30382;48.802;9.388;2023-05-15T22:26:13;7.70;;;6.93;;
44664;SDS011;30382;48.802;9.388;2023-05-15T22:28:57;8.80;;;7.97;;
44664;SDS011;30382;48.802;9.388;2023-05-15T22:31:42;8.43;;;7.63;;
44664;SDS011;30382;48.802;9.388;2023-05-15T22:34:26;7.80;;;7.10;;
44664;SDS011;30382;48.802;9.388;2023-05-15T22:37:14;8.23;;;7.33;;
44664;SDS011;30382;48.802;9.388;2023-05-15T22:39:59;7.93;;;7.33;;
44664;SDS011;30382;48.802;9.388;2023-05-15T22:42:44;6.97;;;6.27;;
44664;SDS011;30382;48.802;9.388;2023-05-15T22:45:33;7.67;;;7.07;;
44664;SDS011;30382;48.802;9.388;2023-05-15T22:48:17;7.70;;;7.00;;
44664;SDS011;30382;48.802;9.388;2023-05-15T22:51:02;7.83;;;7.00;;
44664;SDS011;30382;48.802;9.388;2023-05-15T22:53:48;7.53;;;6.80;;
44664;SDS011;30382;48.802;9.388;2023-05-15T22:56:32;7.87;;;7.03;;
44664;SDS011;30382;48.802;9.388;2023-05-15T22:59:17;7.80;;;7.00;;
44664;SDS011;30382;48.802;9.388;2023-05-15T23:02:01;8.70;;;7.90;;
44664;SDS011;30382;48.802;9.388;2023-05-15T23:04:46;7.63;;;6.97;;
44664;SDS011;30382;48.802;9.388;2023-05-15T23:07:31;8.30;;;7.60;;
44664;SDS011;30382;48.802;9.388;2023-05-15T23:10:15;7.57;;;6.87;;
44664;SDS011;30382;48.802;9.388;2023-05-15T23:13:00;8.20;;;7.20;;
44664;SDS011;30382;48.802;9.388;2023-05-15T23:15:44;9.70;;;8.70;;
44664;SDS011;30382;48.802;9.388;2023-05-15T23:18:33;8.57;;;7.77;;
44664;SDS011;30382;48.802;9.388;2023-05-15T23:21:18;9.90;;;7.97;;
44664;SDS011;30382;48.802;9.388;2023-05-15T23:24:02;8.50;;;7.70;;
44664;SDS011;30382;48.802;9.388;2023-05-15T23:26:46;8.37;;;6.97;;
44664;SDS011;30382;48.802;9.388;2023-05-15T23:29:31;7.97;;;7.27;;
44664;SDS011;30382;48.802;9.388;2023-05-15T23:32:17;7.83;;;7.07;;
44664;SDS011;30382;48.802;9.388;2023-05-15T23:35:01;8.93;;;8.03;;
44664;SDS011;30382;48.802;9.388;2023-05-15T23:37:46;8.27;;;7.57;;
44664;SDS011;30382;48.802;9.388;2023-05-15T23:40:30;9.07;;;8.20;;
44664;SDS011;30382;48.802;9.388;2023-05-15T23:43:15;8.07;;;6.97;;
44664;SDS011;30382;48.802;9.388;2023-05-15T23:45:59;7.27;;;6.57;;
44664;SDS011;30382;48.802;9.388;2023-05-15T23:48:44;7.50;;;6.80;;
44664;SDS011;30382;48.802;9.388;2023-05-15T23:51:28;8.07;;;7.37;;
44664;SDS011;30382;48.802;9.388;2023-05-15T23:54:12;8.20;;;7.40;;
44664;SDS011;30382;48.802;9.388;2023-05-15T23:56:57;7.27;;;6.60;;
44664;SDS011;30382;48.802;9.388;2023-05-15T23:59:41;7.87;;;6.23;;
